sensor_id;sensor_type;location;lat;lon;timestamp;P1;durP1;ratioP1;P2;durP2;ratioP2
42244;SDS011;27912;51.828;5.688;2024-03-07T00:00:16;63.63;;;31.75;;
42244;SDS011;27912;51.828;5.688;2024-03-07T00:02:46;71.38;;;34.75;;
42244;SDS011;27912;51.828;5.688;2024-03-07T00:05:13;66.20;;;32.33;;
42244;SDS011;27912;51.828;5.688;2024-03-07T00:07:40;72.60;;;33.33;;
42244;SDS011;27912;51.828;5.688;2024-03-07T00:10:06;71.78;;;34.97;;
42244;SDS011;27912;51.828;5.688;2024-03-07T00:12:36;65.68;;;33.75;;
42244;SDS011;27912;51.828;5.688;2024-03-07T00:15:05;70.80;;;34.42;;
42244;SDS011;27912;51.828;5.688;2024-03-07T00:17:32;68.35;;;34.03;;
42244;SDS011;27912;51.828;5.688;2024-03-07T00:19:58;70.78;;;35.88;;
42244;SDS011;27912;51.828;5.688;2024-03-07T00:22:23;69.85;;;34.45;;
42244;SDS011;27912;51.828;5.688;2024-03-07T00:24:51;73.78;;;35.45;;
42244;SDS011;27912;51.828;5.688;2024-03-07T00:27:21;75.40;;;35.90;;
42244;SDS011;27912;51.828;5.688;2024-03-07T00:29:47;71.20;;;35.70;;
42244;SDS011;27912;51.828;5.688;2024-03-07T00:32:21;76.70;;;37.22;;
42244;SDS011;27912;51.828;5.688;2024-03-07T00:34:48;71.57;;;34.55;;
42244;SDS011;27912;51.828;5.688;2024-03-07T00:37:14;77.65;;;35.72;;
42244;SDS011;27912;51.828;5.688;2024-03-07T00:39:40;73.90;;;35.40;;
42244;SDS011;27912;51.828;5.688;2024-03-07T00:42:07;82.43;;;37.95;;
42244;SDS011;27912;51.828;5.688;2024-03-07T00:44:33;80.82;;;37.95;;
42244;SDS011;27912;51.828;5.688;2024-03-07T00:46:59;78.75;;;37.15;;
42244;SDS011;27912;51.828;5.688;2024-03-07T00:49:26;79.38;;;37.13;;
42244;SDS011;27912;51.828;5.688;2024-03-07T00:51:53;75.75;;;37.13;;
42244;SDS011;27912;51.828;5.688;2024-03-07T00:54:19;73.28;;;35.30;;
42244;SDS011;27912;51.828;5.688;2024-03-07T00:56:45;73.97;;;34.90;;
42244;SDS011;27912;51.828;5.688;2024-03-07T00:59:14;74.95;;;35.50;;
42244;SDS011;27912;51.828;5.688;2024-03-07T01:01:42;69.60;;;35.03;;
42244;SDS011;27912;51.828;5.688;2024-03-07T01:04:08;81.13;;;36.10;;
42244;SDS011;27912;51.828;5.688;2024-03-07T01:06:34;71.57;;;35.45;;
42244;SDS011;27912;51.828;5.688;2024-03-07T01:09:03;69.43;;;34.67;;
42244;SDS011;27912;51.828;5.688;2024-03-07T01:11:29;70.78;;;34.28;;
42244;SDS011;27912;51.828;5.688;2024-03-07T01:13:55;78.50;;;35.83;;
42244;SDS011;27912;51.828;5.688;2024-03-07T01:16:21;72.32;;;34.80;;
42244;SDS011;27912;51.828;5.688;2024-03-07T01:18:47;83.05;;;39.13;;
42244;SDS011;27912;51.828;5.688;2024-03-07T01:21:14;79.88;;;37.70;;
42244;SDS011;27912;51.828;5.688;2024-03-07T01:23:40;76.10;;;37.10;;
42244;SDS011;27912;51.828;5.688;2024-03-07T01:26:06;78.85;;;36.13;;
42244;SDS011;27912;51.828;5.688;2024-03-07T01:28:32;76.63;;;37.20;;
42244;SDS011;27912;51.828;5.688;2024-03-07T01:30:58;77.85;;;36.97;;
42244;SDS011;27912;51.828;5.688;2024-03-07T01:33:23;80.88;;;38.50;;
42244;SDS011;27912;51.828;5.688;2024-03-07T01:35:49;76.95;;;37.05;;
42244;SDS011;27912;51.828;5.688;2024-03-07T01:38:15;76.40;;;37.47;;
42244;SDS011;27912;51.828;5.688;2024-03-07T01:40:42;75.18;;;36.17;;
42244;SDS011;27912;51.828;5.688;2024-03-07T01:43:08;85.13;;;40.42;;
42244;SDS011;27912;51.828;5.688;2024-03-07T01:45:35;79.63;;;37.85;;
42244;SDS011;27912;51.828;5.688;2024-03-07T01:48:02;87.63;;;41.42;;
42244;SDS011;27912;51.828;5.688;2024-03-07T01:50:29;83.10;;;38.17;;
42244;SDS011;27912;51.828;5.688;2024-03-07T01:52:55;83.38;;;37.75;;
42244;SDS011;27912;51.828;5.688;2024-03-07T01:55:22;79.68;;;37.00;;
42244;SDS011;27912;51.828;5.688;2024-03-07T01:57:48;83.68;;;38.00;;
42244;SDS011;27912;51.828;5.688;2024-03-07T02:00:14;86.03;;;40.80;;
42244;SDS011;27912;51.828;5.688;2024-03-07T02:02:40;72.90;;;36.70;;
42244;SDS011;27912;51.828;5.688;2024-03-07T02:05:06;81.82;;;38.15;;
42244;SDS011;27912;51.828;5.688;2024-03-07T02:07:32;78.57;;;37.58;;
42244;SDS011;27912;51.828;5.688;2024-03-07T02:10:01;84.05;;;37.47;;
42244;SDS011;27912;51.828;5.688;2024-03-07T02:12:28;82.65;;;37.72;;
42244;SDS011;27912;51.828;5.688;2024-03-07T02:14:55;75.68;;;35.85;;
42244;SDS011;27912;51.828;5.688;2024-03-07T02:17:22;77.35;;;35.75;;
42244;SDS011;27912;51.828;5.688;2024-03-07T02:19:48;87.88;;;39.00;;
42244;SDS011;27912;51.828;5.688;2024-03-07T02:22:15;81.00;;;37.50;;
42244;SDS011;27912;51.828;5.688;2024-03-07T02:24:41;92.10;;;41.42;;
42244;SDS011;27912;51.828;5.688;2024-03-07T02:27:06;85.88;;;40.88;;
42244;SDS011;27912;51.828;5.688;2024-03-07T02:29:34;87.97;;;41.80;;
42244;SDS011;27912;51.828;5.688;2024-03-07T02:32:01;106.95;;;45.58;;
42244;SDS011;27912;51.828;5.688;2024-03-07T02:34:27;99.53;;;43.55;;
42244;SDS011;27912;51.828;5.688;2024-03-07T02:36:53;94.15;;;42.55;;
42244;SDS011;27912;51.828;5.688;2024-03-07T02:39:19;95.95;;;43.25;;
42244;SDS011;27912;51.828;5.688;2024-03-07T02:41:46;88.78;;;42.70;;
42244;SDS011;27912;51.828;5.688;2024-03-07T02:44:12;95.45;;;43.28;;
42244;SDS011;27912;51.828;5.688;2024-03-07T02:46:39;93.00;;;44.20;;
42244;SDS011;27912;51.828;5.688;2024-03-07T02:49:05;94.60;;;45.50;;
42244;SDS011;27912;51.828;5.688;2024-03-07T02:51:30;97.90;;;43.83;;
42244;SDS011;27912;51.828;5.688;2024-03-07T02:53:56;91.55;;;42.85;;
42244;SDS011;27912;51.828;5.688;2024-03-07T02:56:22;99.70;;;45.78;;
42244;SDS011;27912;51.828;5.688;2024-03-07T02:58:48;92.78;;;44.03;;
42244;SDS011;27912;51.828;5.688;2024-03-07T03:01:14;90.43;;;41.83;;
42244;SDS011;27912;51.828;5.688;2024-03-07T03:03:40;106.80;;;46.20;;
42244;SDS011;27912;51.828;5.688;2024-03-07T03:06:07;107.70;;;47.65;;
42244;SDS011;27912;51.828;5.688;2024-03-07T03:08:33;91.22;;;42.25;;
42244;SDS011;27912;51.828;5.688;2024-03-07T03:10:59;96.82;;;46.45;;
42244;SDS011;27912;51.828;5.688;2024-03-07T03:13:25;105.80;;;46.75;;
42244;SDS011;27912;51.828;5.688;2024-03-07T03:15:54;99.60;;;44.85;;
42244;SDS011;27912;51.828;5.688;2024-03-07T03:18:21;95.57;;;43.60;;
42244;SDS011;27912;51.828;5.688;2024-03-07T03:20:47;95.00;;;43.83;;
42244;SDS011;27912;51.828;5.688;2024-03-07T03:23:13;103.55;;;47.17;;
42244;SDS011;27912;51.828;5.688;2024-03-07T03:25:39;96.82;;;45.28;;
42244;SDS011;27912;51.828;5.688;2024-03-07T03:28:06;99.25;;;44.22;;
42244;SDS011;27912;51.828;5.688;2024-03-07T03:30:34;93.78;;;44.53;;
42244;SDS011;27912;51.828;5.688;2024-03-07T03:33:01;106.15;;;45.70;;
42244;SDS011;27912;51.828;5.688;2024-03-07T03:35:27;103.05;;;48.20;;
42244;SDS011;27912;51.828;5.688;2024-03-07T03:37:53;100.60;;;44.80;;
42244;SDS011;27912;51.828;5.688;2024-03-07T03:40:19;101.40;;;44.78;;
42244;SDS011;27912;51.828;5.688;2024-03-07T03:42:44;102.80;;;45.53;;
42244;SDS011;27912;51.828;5.688;2024-03-07T03:45:10;97.03;;;44.80;;
42244;SDS011;27912;51.828;5.688;2024-03-07T03:47:40;95.95;;;45.08;;
42244;SDS011;27912;51.828;5.688;2024-03-07T03:50:08;102.00;;;45.28;;
42244;SDS011;27912;51.828;5.688;2024-03-07T03:52:35;107.53;;;48.58;;
42244;SDS011;27912;51.828;5.688;2024-03-07T03:55:01;98.97;;;45.42;;
42244;SDS011;27912;51.828;5.688;2024-03-07T03:57:28;102.25;;;46.75;;
42244;SDS011;27912;51.828;5.688;2024-03-07T03:59:56;102.18;;;47.40;;
42244;SDS011;27912;51.828;5.688;2024-03-07T04:02:22;104.60;;;47.05;;
42244;SDS011;27912;51.828;5.688;2024-03-07T04:04:49;104.10;;;46.97;;
42244;SDS011;27912;51.828;5.688;2024-03-07T04:07:16;101.78;;;47.13;;
42244;SDS011;27912;51.828;5.688;2024-03-07T04:09:42;101.65;;;45.40;;
42244;SDS011;27912;51.828;5.688;2024-03-07T04:12:08;107.35;;;46.65;;
42244;SDS011;27912;51.828;5.688;2024-03-07T04:14:37;107.32;;;45.63;;
42244;SDS011;27912;51.828;5.688;2024-03-07T04:17:06;102.68;;;45.92;;
42244;SDS011;27912;51.828;5.688;2024-03-07T04:19:36;109.03;;;46.90;;
42244;SDS011;27912;51.828;5.688;2024-03-07T04:22:03;105.72;;;47.55;;
42244;SDS011;27912;51.828;5.688;2024-03-07T04:24:30;102.45;;;46.45;;
42244;SDS011;27912;51.828;5.688;2024-03-07T04:26:57;105.85;;;47.60;;
42244;SDS011;27912;51.828;5.688;2024-03-07T04:29:24;108.72;;;46.38;;
42244;SDS011;27912;51.828;5.688;2024-03-07T04:31:50;115.20;;;51.03;;
42244;SDS011;27912;51.828;5.688;2024-03-07T04:34:16;115.03;;;49.38;;
42244;SDS011;27912;51.828;5.688;2024-03-07T04:36:42;112.03;;;50.65;;
42244;SDS011;27912;51.828;5.688;2024-03-07T04:39:08;101.22;;;46.25;;
42244;SDS011;27912;51.828;5.688;2024-03-07T04:41:44;111.82;;;50.67;;
42244;SDS011;27912;51.828;5.688;2024-03-07T04:44:10;113.68;;;48.90;;
42244;SDS011;27912;51.828;5.688;2024-03-07T04:46:35;115.30;;;49.53;;
42244;SDS011;27912;51.828;5.688;2024-03-07T04:49:01;109.18;;;47.17;;
42244;SDS011;27912;51.828;5.688;2024-03-07T04:51:27;111.50;;;47.83;;
42244;SDS011;27912;51.828;5.688;2024-03-07T04:53:52;104.43;;;46.08;;
42244;SDS011;27912;51.828;5.688;2024-03-07T04:56:18;110.72;;;48.45;;
42244;SDS011;27912;51.828;5.688;2024-03-07T04:58:43;104.72;;;47.17;;
42244;SDS011;27912;51.828;5.688;2024-03-07T05:01:09;109.45;;;49.67;;
42244;SDS011;27912;51.828;5.688;2024-03-07T05:03:35;105.65;;;47.85;;
42244;SDS011;27912;51.828;5.688;2024-03-07T05:06:00;118.43;;;48.65;;
42244;SDS011;27912;51.828;5.688;2024-03-07T05:08:26;112.13;;;49.13;;
42244;SDS011;27912;51.828;5.688;2024-03-07T05:10:51;105.13;;;48.58;;
42244;SDS011;27912;51.828;5.688;2024-03-07T05:13:17;107.68;;;47.88;;
42244;SDS011;27912;51.828;5.688;2024-03-07T05:15:43;119.00;;;49.95;;
42244;SDS011;27912;51.828;5.688;2024-03-07T05:18:08;112.07;;;48.30;;
42244;SDS011;27912;51.828;5.688;2024-03-07T05:20:34;108.97;;;47.17;;
42244;SDS011;27912;51.828;5.688;2024-03-07T05:23:00;114.82;;;48.67;;
42244;SDS011;27912;51.828;5.688;2024-03-07T05:25:26;107.82;;;48.53;;
42244;SDS011;27912;51.828;5.688;2024-03-07T05:27:52;104.68;;;46.35;;
42244;SDS011;27912;51.828;5.688;2024-03-07T05:30:18;110.97;;;48.42;;
42244;SDS011;27912;51.828;5.688;2024-03-07T05:32:44;117.18;;;50.15;;
42244;SDS011;27912;51.828;5.688;2024-03-07T05:35:09;112.25;;;49.08;;
42244;SDS011;27912;51.828;5.688;2024-03-07T05:37:36;111.00;;;49.75;;
42244;SDS011;27912;51.828;5.688;2024-03-07T05:40:02;110.00;;;49.67;;
42244;SDS011;27912;51.828;5.688;2024-03-07T05:42:28;109.85;;;47.60;;
42244;SDS011;27912;51.828;5.688;2024-03-07T05:44:54;98.60;;;46.83;;
42244;SDS011;27912;51.828;5.688;2024-03-07T05:47:20;120.78;;;49.58;;
42244;SDS011;27912;51.828;5.688;2024-03-07T05:49:46;106.45;;;47.35;;
42244;SDS011;27912;51.828;5.688;2024-03-07T05:52:12;108.00;;;46.65;;
42244;SDS011;27912;51.828;5.688;2024-03-07T05:54:38;111.32;;;48.95;;
42244;SDS011;27912;51.828;5.688;2024-03-07T05:57:03;112.95;;;47.63;;
42244;SDS011;27912;51.828;5.688;2024-03-07T05:59:31;106.65;;;46.63;;
42244;SDS011;27912;51.828;5.688;2024-03-07T06:01:57;107.32;;;47.30;;
42244;SDS011;27912;51.828;5.688;2024-03-07T06:04:23;109.57;;;46.85;;
42244;SDS011;27912;51.828;5.688;2024-03-07T06:06:48;108.07;;;47.03;;
42244;SDS011;27912;51.828;5.688;2024-03-07T06:09:14;112.07;;;49.55;;
42244;SDS011;27912;51.828;5.688;2024-03-07T06:11:46;110.30;;;48.95;;
42244;SDS011;27912;51.828;5.688;2024-03-07T06:14:12;111.18;;;48.30;;
42244;SDS011;27912;51.828;5.688;2024-03-07T06:16:38;117.85;;;47.90;;
42244;SDS011;27912;51.828;5.688;2024-03-07T06:19:05;100.80;;;46.55;;
42244;SDS011;27912;51.828;5.688;2024-03-07T06:21:32;110.15;;;48.13;;
42244;SDS011;27912;51.828;5.688;2024-03-07T06:23:59;106.88;;;46.42;;
42244;SDS011;27912;51.828;5.688;2024-03-07T06:26:26;113.03;;;46.97;;
42244;SDS011;27912;51.828;5.688;2024-03-07T06:29:24;102.60;;;44.20;;
42244;SDS011;27912;51.828;5.688;2024-03-07T06:31:51;105.03;;;47.15;;
42244;SDS011;27912;51.828;5.688;2024-03-07T06:34:18;103.88;;;47.22;;
42244;SDS011;27912;51.828;5.688;2024-03-07T06:36:44;109.38;;;47.28;;
42244;SDS011;27912;51.828;5.688;2024-03-07T06:39:10;106.88;;;47.05;;
42244;SDS011;27912;51.828;5.688;2024-03-07T06:41:36;104.93;;;46.17;;
42244;SDS011;27912;51.828;5.688;2024-03-07T06:44:02;104.35;;;46.50;;
42244;SDS011;27912;51.828;5.688;2024-03-07T06:46:28;105.82;;;47.30;;
42244;SDS011;27912;51.828;5.688;2024-03-07T06:48:54;103.05;;;45.78;;
42244;SDS011;27912;51.828;5.688;2024-03-07T06:51:21;107.32;;;46.70;;
42244;SDS011;27912;51.828;5.688;2024-03-07T06:53:47;105.80;;;47.78;;
42244;SDS011;27912;51.828;5.688;2024-03-07T06:56:13;108.60;;;47.05;;
42244;SDS011;27912;51.828;5.688;2024-03-07T06:58:41;101.95;;;45.25;;
42244;SDS011;27912;51.828;5.688;2024-03-07T07:01:07;105.20;;;47.55;;
42244;SDS011;27912;51.828;5.688;2024-03-07T07:03:35;102.65;;;46.00;;
42244;SDS011;27912;51.828;5.688;2024-03-07T07:06:01;90.68;;;41.42;;
42244;SDS011;27912;51.828;5.688;2024-03-07T07:08:27;103.10;;;45.58;;
42244;SDS011;27912;51.828;5.688;2024-03-07T07:10:56;98.47;;;45.42;;
42244;SDS011;27912;51.828;5.688;2024-03-07T07:13:22;107.45;;;47.25;;
42244;SDS011;27912;51.828;5.688;2024-03-07T07:15:51;103.32;;;47.15;;
42244;SDS011;27912;51.828;5.688;2024-03-07T07:18:18;103.25;;;46.40;;
42244;SDS011;27912;51.828;5.688;2024-03-07T07:20:44;99.70;;;45.95;;
42244;SDS011;27912;51.828;5.688;2024-03-07T07:23:09;91.50;;;44.92;;
42244;SDS011;27912;51.828;5.688;2024-03-07T07:25:35;95.93;;;45.45;;
42244;SDS011;27912;51.828;5.688;2024-03-07T07:28:01;95.90;;;42.55;;
42244;SDS011;27912;51.828;5.688;2024-03-07T07:30:29;93.85;;;45.05;;
42244;SDS011;27912;51.828;5.688;2024-03-07T07:32:55;89.88;;;43.35;;
42244;SDS011;27912;51.828;5.688;2024-03-07T07:35:21;96.88;;;44.60;;
42244;SDS011;27912;51.828;5.688;2024-03-07T07:37:47;81.70;;;41.35;;
42244;SDS011;27912;51.828;5.688;2024-03-07T07:40:16;81.47;;;41.35;;
42244;SDS011;27912;51.828;5.688;2024-03-07T07:42:46;83.72;;;41.58;;
42244;SDS011;27912;51.828;5.688;2024-03-07T07:45:14;82.15;;;40.80;;
42244;SDS011;27912;51.828;5.688;2024-03-07T07:47:44;77.20;;;38.95;;
42244;SDS011;27912;51.828;5.688;2024-03-07T07:50:17;72.80;;;37.13;;
42244;SDS011;27912;51.828;5.688;2024-03-07T07:52:45;64.93;;;35.53;;
42244;SDS011;27912;51.828;5.688;2024-03-07T07:55:18;72.40;;;38.72;;
42244;SDS011;27912;51.828;5.688;2024-03-07T07:57:45;67.03;;;34.50;;
42244;SDS011;27912;51.828;5.688;2024-03-07T08:00:13;70.00;;;37.38;;
42244;SDS011;27912;51.828;5.688;2024-03-07T08:05:22;66.03;;;34.30;;
42244;SDS011;27912;51.828;5.688;2024-03-07T08:07:49;60.13;;;34.10;;
42244;SDS011;27912;51.828;5.688;2024-03-07T08:10:16;62.33;;;35.90;;
42244;SDS011;27912;51.828;5.688;2024-03-07T08:12:43;67.97;;;35.38;;
42244;SDS011;27912;51.828;5.688;2024-03-07T08:15:12;65.47;;;35.08;;
42244;SDS011;27912;51.828;5.688;2024-03-07T08:17:44;63.65;;;33.47;;
42244;SDS011;27912;51.828;5.688;2024-03-07T08:20:12;60.08;;;32.40;;
42244;SDS011;27912;51.828;5.688;2024-03-07T08:22:39;54.20;;;32.05;;
42244;SDS011;27912;51.828;5.688;2024-03-07T08:25:15;58.97;;;33.15;;
42244;SDS011;27912;51.828;5.688;2024-03-07T08:27:42;52.15;;;31.27;;
42244;SDS011;27912;51.828;5.688;2024-03-07T08:30:11;61.35;;;34.85;;
42244;SDS011;27912;51.828;5.688;2024-03-07T08:32:47;52.90;;;31.27;;
42244;SDS011;27912;51.828;5.688;2024-03-07T08:35:19;56.67;;;32.45;;
42244;SDS011;27912;51.828;5.688;2024-03-07T08:37:45;55.92;;;32.28;;
42244;SDS011;27912;51.828;5.688;2024-03-07T08:40:17;53.65;;;31.20;;
42244;SDS011;27912;51.828;5.688;2024-03-07T08:42:44;53.75;;;31.00;;
42244;SDS011;27912;51.828;5.688;2024-03-07T08:45:11;56.20;;;31.33;;
42244;SDS011;27912;51.828;5.688;2024-03-07T08:47:42;54.22;;;31.02;;
42244;SDS011;27912;51.828;5.688;2024-03-07T08:50:08;54.15;;;31.42;;
42244;SDS011;27912;51.828;5.688;2024-03-07T08:52:34;45.97;;;29.40;;
42244;SDS011;27912;51.828;5.688;2024-03-07T08:55:05;49.75;;;28.77;;
42244;SDS011;27912;51.828;5.688;2024-03-07T08:57:34;47.08;;;29.02;;
42244;SDS011;27912;51.828;5.688;2024-03-07T09:00:01;51.78;;;30.20;;
42244;SDS011;27912;51.828;5.688;2024-03-07T09:02:33;47.25;;;27.88;;
42244;SDS011;27912;51.828;5.688;2024-03-07T09:04:59;45.25;;;28.13;;
42244;SDS011;27912;51.828;5.688;2024-03-07T09:07:25;47.50;;;28.83;;
42244;SDS011;27912;51.828;5.688;2024-03-07T09:09:51;47.47;;;28.67;;
42244;SDS011;27912;51.828;5.688;2024-03-07T09:12:17;42.70;;;26.17;;
42244;SDS011;27912;51.828;5.688;2024-03-07T09:14:45;43.15;;;26.98;;
42244;SDS011;27912;51.828;5.688;2024-03-07T09:17:10;50.70;;;28.13;;
42244;SDS011;27912;51.828;5.688;2024-03-07T09:19:37;43.40;;;26.63;;
42244;SDS011;27912;51.828;5.688;2024-03-07T09:22:03;41.80;;;26.92;;
42244;SDS011;27912;51.828;5.688;2024-03-07T09:24:29;44.10;;;26.27;;
42244;SDS011;27912;51.828;5.688;2024-03-07T09:26:56;40.60;;;24.80;;
42244;SDS011;27912;51.828;5.688;2024-03-07T09:29:22;41.78;;;26.33;;
42244;SDS011;27912;51.828;5.688;2024-03-07T09:31:51;40.42;;;24.52;;
42244;SDS011;27912;51.828;5.688;2024-03-07T09:34:17;38.42;;;24.13;;
42244;SDS011;27912;51.828;5.688;2024-03-07T09:36:44;38.92;;;23.63;;
42244;SDS011;27912;51.828;5.688;2024-03-07T09:39:09;39.75;;;24.00;;
42244;SDS011;27912;51.828;5.688;2024-03-07T09:41:37;33.97;;;21.80;;
42244;SDS011;27912;51.828;5.688;2024-03-07T09:44:04;36.13;;;22.55;;
42244;SDS011;27912;51.828;5.688;2024-03-07T09:46:32;31.02;;;20.13;;
42244;SDS011;27912;51.828;5.688;2024-03-07T09:48:59;33.00;;;20.60;;
42244;SDS011;27912;51.828;5.688;2024-03-07T09:51:26;31.05;;;20.08;;
42244;SDS011;27912;51.828;5.688;2024-03-07T09:53:53;34.22;;;20.23;;
42244;SDS011;27912;51.828;5.688;2024-03-07T09:56:23;32.15;;;19.70;;
42244;SDS011;27912;51.828;5.688;2024-03-07T09:58:50;34.70;;;21.35;;
42244;SDS011;27912;51.828;5.688;2024-03-07T10:01:19;33.88;;;20.35;;
42244;SDS011;27912;51.828;5.688;2024-03-07T10:03:49;32.17;;;20.02;;
42244;SDS011;27912;51.828;5.688;2024-03-07T10:06:18;30.33;;;18.25;;
42244;SDS011;27912;51.828;5.688;2024-03-07T10:08:46;31.63;;;19.95;;
42244;SDS011;27912;51.828;5.688;2024-03-07T10:11:12;29.63;;;19.17;;
42244;SDS011;27912;51.828;5.688;2024-03-07T10:13:39;27.52;;;17.30;;
42244;SDS011;27912;51.828;5.688;2024-03-07T10:16:06;30.40;;;18.63;;
42244;SDS011;27912;51.828;5.688;2024-03-07T10:18:33;29.10;;;17.80;;
42244;SDS011;27912;51.828;5.688;2024-03-07T10:21:06;29.10;;;19.15;;
42244;SDS011;27912;51.828;5.688;2024-03-07T10:23:32;28.65;;;17.88;;
42244;SDS011;27912;51.828;5.688;2024-03-07T10:25:59;31.52;;;18.50;;
42244;SDS011;27912;51.828;5.688;2024-03-07T10:28:26;28.75;;;16.27;;
42244;SDS011;27912;51.828;5.688;2024-03-07T10:30:53;30.90;;;17.83;;
42244;SDS011;27912;51.828;5.688;2024-03-07T10:33:18;28.77;;;17.77;;
42244;SDS011;27912;51.828;5.688;2024-03-07T10:35:48;31.63;;;18.52;;
42244;SDS011;27912;51.828;5.688;2024-03-07T10:38:14;29.33;;;18.15;;
42244;SDS011;27912;51.828;5.688;2024-03-07T10:40:40;27.85;;;18.00;;
42244;SDS011;27912;51.828;5.688;2024-03-07T10:43:10;31.95;;;18.42;;
42244;SDS011;27912;51.828;5.688;2024-03-07T10:45:46;27.60;;;18.80;;
42244;SDS011;27912;51.828;5.688;2024-03-07T10:48:13;26.52;;;18.60;;
42244;SDS011;27912;51.828;5.688;2024-03-07T10:59:17;31.42;;;18.05;;
42244;SDS011;27912;51.828;5.688;2024-03-07T11:01:53;29.30;;;17.67;;
42244;SDS011;27912;51.828;5.688;2024-03-07T11:04:24;26.85;;;17.48;;
42244;SDS011;27912;51.828;5.688;2024-03-07T11:06:50;31.45;;;18.33;;
42244;SDS011;27912;51.828;5.688;2024-03-07T11:09:16;27.88;;;17.40;;
42244;SDS011;27912;51.828;5.688;2024-03-07T11:11:48;27.85;;;17.60;;
42244;SDS011;27912;51.828;5.688;2024-03-07T11:14:14;30.55;;;19.30;;
42244;SDS011;27912;51.828;5.688;2024-03-07T11:16:41;26.88;;;18.13;;
42244;SDS011;27912;51.828;5.688;2024-03-07T11:19:27;29.55;;;17.80;;
42244;SDS011;27912;51.828;5.688;2024-03-07T11:21:56;29.88;;;17.38;;
42244;SDS011;27912;51.828;5.688;2024-03-07T11:26:59;27.55;;;18.00;;
42244;SDS011;27912;51.828;5.688;2024-03-07T11:32:15;30.38;;;18.38;;
42244;SDS011;27912;51.828;5.688;2024-03-07T11:34:42;29.08;;;17.15;;
42244;SDS011;27912;51.828;5.688;2024-03-07T11:37:16;27.63;;;17.42;;
42244;SDS011;27912;51.828;5.688;2024-03-07T11:40:01;28.98;;;16.67;;
42244;SDS011;27912;51.828;5.688;2024-03-07T11:42:33;29.08;;;16.33;;
42244;SDS011;27912;51.828;5.688;2024-03-07T11:45:00;26.67;;;16.63;;
42244;SDS011;27912;51.828;5.688;2024-03-07T11:47:37;27.17;;;17.13;;
42244;SDS011;27912;51.828;5.688;2024-03-07T11:50:04;24.08;;;15.40;;
42244;SDS011;27912;51.828;5.688;2024-03-07T11:52:36;28.98;;;17.65;;
42244;SDS011;27912;51.828;5.688;2024-03-07T11:55:03;29.27;;;16.60;;
42244;SDS011;27912;51.828;5.688;2024-03-07T11:57:29;28.25;;;15.77;;
42244;SDS011;27912;51.828;5.688;2024-03-07T11:59:58;22.63;;;14.00;;
42244;SDS011;27912;51.828;5.688;2024-03-07T12:02:33;25.50;;;16.10;;
42244;SDS011;27912;51.828;5.688;2024-03-07T12:04:59;25.42;;;13.95;;
42244;SDS011;27912;51.828;5.688;2024-03-07T12:07:25;24.60;;;15.27;;
42244;SDS011;27912;51.828;5.688;2024-03-07T12:09:51;21.70;;;13.25;;
42244;SDS011;27912;51.828;5.688;2024-03-07T12:12:20;27.27;;;15.00;;
42244;SDS011;27912;51.828;5.688;2024-03-07T12:14:47;24.00;;;13.70;;
42244;SDS011;27912;51.828;5.688;2024-03-07T12:17:13;23.33;;;14.57;;
42244;SDS011;27912;51.828;5.688;2024-03-07T12:19:42;26.45;;;15.98;;
42244;SDS011;27912;51.828;5.688;2024-03-07T12:22:09;26.30;;;15.48;;
42244;SDS011;27912;51.828;5.688;2024-03-07T12:24:38;23.25;;;15.00;;
42244;SDS011;27912;51.828;5.688;2024-03-07T12:27:11;28.48;;;16.33;;
42244;SDS011;27912;51.828;5.688;2024-03-07T12:29:38;24.58;;;16.10;;
42244;SDS011;27912;51.828;5.688;2024-03-07T12:32:05;26.15;;;15.73;;
42244;SDS011;27912;51.828;5.688;2024-03-07T12:34:33;25.73;;;13.55;;
42244;SDS011;27912;51.828;5.688;2024-03-07T12:37:02;25.17;;;13.70;;
42244;SDS011;27912;51.828;5.688;2024-03-07T12:39:31;22.98;;;13.65;;
42244;SDS011;27912;51.828;5.688;2024-03-07T12:42:00;24.33;;;15.65;;
42244;SDS011;27912;51.828;5.688;2024-03-07T12:44:39;24.70;;;15.30;;
42244;SDS011;27912;51.828;5.688;2024-03-07T12:47:14;25.48;;;15.20;;
42244;SDS011;27912;51.828;5.688;2024-03-07T12:49:41;28.15;;;16.40;;
42244;SDS011;27912;51.828;5.688;2024-03-07T12:52:07;26.00;;;15.77;;
42244;SDS011;27912;51.828;5.688;2024-03-07T12:54:36;23.25;;;14.65;;
42244;SDS011;27912;51.828;5.688;2024-03-07T12:57:08;23.05;;;14.10;;
42244;SDS011;27912;51.828;5.688;2024-03-07T12:59:40;26.13;;;13.38;;
42244;SDS011;27912;51.828;5.688;2024-03-07T13:02:06;22.70;;;14.80;;
42244;SDS011;27912;51.828;5.688;2024-03-07T13:04:35;23.95;;;15.45;;
42244;SDS011;27912;51.828;5.688;2024-03-07T13:07:05;21.10;;;14.65;;
42244;SDS011;27912;51.828;5.688;2024-03-07T13:09:34;22.85;;;14.88;;
42244;SDS011;27912;51.828;5.688;2024-03-07T13:12:00;22.80;;;14.93;;
42244;SDS011;27912;51.828;5.688;2024-03-07T13:14:28;25.45;;;15.57;;
42244;SDS011;27912;51.828;5.688;2024-03-07T13:17:00;22.85;;;14.90;;
42244;SDS011;27912;51.828;5.688;2024-03-07T13:19:27;22.23;;;14.80;;
42244;SDS011;27912;51.828;5.688;2024-03-07T13:21:53;23.60;;;14.68;;
42244;SDS011;27912;51.828;5.688;2024-03-07T13:24:20;20.95;;;14.20;;
42244;SDS011;27912;51.828;5.688;2024-03-07T13:26:46;22.13;;;14.77;;
42244;SDS011;27912;51.828;5.688;2024-03-07T13:29:15;21.05;;;14.38;;
42244;SDS011;27912;51.828;5.688;2024-03-07T13:31:44;25.20;;;15.45;;
42244;SDS011;27912;51.828;5.688;2024-03-07T13:34:10;23.38;;;15.57;;
42244;SDS011;27912;51.828;5.688;2024-03-07T13:36:40;26.52;;;15.77;;
42244;SDS011;27912;51.828;5.688;2024-03-07T13:39:06;22.20;;;13.90;;
42244;SDS011;27912;51.828;5.688;2024-03-07T13:41:36;22.05;;;14.02;;
42244;SDS011;27912;51.828;5.688;2024-03-07T13:44:06;20.80;;;13.57;;
42244;SDS011;27912;51.828;5.688;2024-03-07T13:46:32;21.67;;;14.73;;
42244;SDS011;27912;51.828;5.688;2024-03-07T13:48:59;22.40;;;15.02;;
42244;SDS011;27912;51.828;5.688;2024-03-07T13:51:42;21.58;;;15.00;;
42244;SDS011;27912;51.828;5.688;2024-03-07T13:54:28;24.23;;;15.07;;
42244;SDS011;27912;51.828;5.688;2024-03-07T13:57:14;24.48;;;15.05;;
42244;SDS011;27912;51.828;5.688;2024-03-07T13:59:49;22.17;;;14.90;;
42244;SDS011;27912;51.828;5.688;2024-03-07T14:08:12;23.08;;;15.75;;
42244;SDS011;27912;51.828;5.688;2024-03-07T14:11:20;24.17;;;15.25;;
42244;SDS011;27912;51.828;5.688;2024-03-07T14:14:13;21.52;;;14.02;;
42244;SDS011;27912;51.828;5.688;2024-03-07T14:17:13;20.48;;;14.23;;
42244;SDS011;27912;51.828;5.688;2024-03-07T14:29:03;21.23;;;14.75;;
42244;SDS011;27912;51.828;5.688;2024-03-07T14:31:41;22.42;;;15.20;;
42244;SDS011;27912;51.828;5.688;2024-03-07T14:34:14;22.42;;;14.35;;
42244;SDS011;27912;51.828;5.688;2024-03-07T14:36:44;21.05;;;13.63;;
42244;SDS011;27912;51.828;5.688;2024-03-07T14:39:15;22.60;;;15.20;;
42244;SDS011;27912;51.828;5.688;2024-03-07T14:41:57;21.35;;;14.15;;
42244;SDS011;27912;51.828;5.688;2024-03-07T14:44:26;21.75;;;13.43;;
42244;SDS011;27912;51.828;5.688;2024-03-07T14:46:53;20.00;;;13.32;;
42244;SDS011;27912;51.828;5.688;2024-03-07T14:49:25;22.58;;;14.13;;
42244;SDS011;27912;51.828;5.688;2024-03-07T14:51:52;21.17;;;14.73;;
42244;SDS011;27912;51.828;5.688;2024-03-07T14:54:19;20.05;;;14.32;;